sensor_id;sensor_type;location;lat;lon;timestamp;P1;durP1;ratioP1;P2;durP2;ratioP2
21260;SDS011;10788;47.930;9.766;2022-08-03T00:01:31;0.10;;;0.10;;
21260;SDS011;10788;47.930;9.766;2022-08-03T00:03:57;0.10;;;0.10;;
21260;SDS011;10788;47.930;9.766;2022-08-03T00:06:23;0.10;;;0.10;;
21260;SDS011;10788;47.930;9.766;2022-08-03T00:08:49;0.00;;;0.00;;
21260;SDS011;10788;47.930;9.766;2022-08-03T00:11:15;0.10;;;0.10;;
21260;SDS011;10788;47.930;9.766;2022-08-03T00:13:41;0.10;;;0.10;;
21260;SDS011;10788;47.930;9.766;2022-08-03T00:16:06;0.03;;;0.03;;
21260;SDS011;10788;47.930;9.766;2022-08-03T00:18:32;0.03;;;0.03;;
21260;SDS011;10788;47.930;9.766;2022-08-03T00:20:58;0.10;;;0.10;;
21260;SDS011;10788;47.930;9.766;2022-08-03T00:23:24;0.10;;;0.10;;
21260;SDS011;10788;47.930;9.766;2022-08-03T00:25:49;0.10;;;0.10;;
21260;SDS011;10788;47.930;9.766;2022-08-03T00:28:15;0.10;;;0.10;;
21260;SDS011;10788;47.930;9.766;2022-08-03T00:30:41;0.00;;;0.00;;
21260;SDS011;10788;47.930;9.766;2022-08-03T00:33:06;0.00;;;0.00;;
21260;SDS011;10788;47.930;9.766;2022-08-03T00:35:34;0.10;;;0.10;;
21260;SDS011;10788;47.930;9.766;2022-08-03T00:38:00;0.10;;;0.10;;
21260;SDS011;10788;47.930;9.766;2022-08-03T00:40:26;0.10;;;0.10;;
21260;SDS011;10788;47.930;9.766;2022-08-03T00:45:28;0.00;;;0.00;;
21260;SDS011;10788;47.930;9.766;2022-08-03T00:47:55;0.10;;;0.10;;
21260;SDS011;10788;47.930;9.766;2022-08-03T00:50:22;0.10;;;0.10;;
21260;SDS011;10788;47.930;9.766;2022-08-03T00:52:50;0.00;;;0.00;;
21260;SDS011;10788;47.930;9.766;2022-08-03T00:55:17;0.00;;;0.00;;
21260;SDS011;10788;47.930;9.766;2022-08-03T00:57:44;0.00;;;0.00;;
21260;SDS011;10788;47.930;9.766;2022-08-03T01:00:10;0.10;;;0.10;;
21260;SDS011;10788;47.930;9.766;2022-08-03T01:02:38;0.10;;;0.10;;
21260;SDS011;10788;47.930;9.766;2022-08-03T01:05:05;0.07;;;0.07;;
21260;SDS011;10788;47.930;9.766;2022-08-03T01:13:02;0.00;;;0.00;;
21260;SDS011;10788;47.930;9.766;2022-08-03T01:15:42;0.00;;;0.00;;
21260;SDS011;10788;47.930;9.766;2022-08-03T01:18:13;0.00;;;0.00;;
21260;SDS011;10788;47.930;9.766;2022-08-03T01:20:46;0.00;;;0.00;;
21260;SDS011;10788;47.930;9.766;2022-08-03T01:23:26;0.00;;;0.00;;
21260;SDS011;10788;47.930;9.766;2022-08-03T01:31:27;0.00;;;0.00;;
21260;SDS011;10788;47.930;9.766;2022-08-03T01:33:59;0.10;;;0.10;;
21260;SDS011;10788;47.930;9.766;2022-08-03T01:36:32;0.10;;;0.10;;
21260;SDS011;10788;47.930;9.766;2022-08-03T01:39:02;0.00;;;0.00;;
21260;SDS011;10788;47.930;9.766;2022-08-03T01:41:34;0.00;;;0.00;;
21260;SDS011;10788;47.930;9.766;2022-08-03T01:44:07;0.00;;;0.00;;
21260;SDS011;10788;47.930;9.766;2022-08-03T01:46:34;0.00;;;0.00;;
21260;SDS011;10788;47.930;9.766;2022-08-03T01:49:02;0.00;;;0.00;;
21260;SDS011;10788;47.930;9.766;2022-08-03T01:51:34;0.00;;;0.00;;
21260;SDS011;10788;47.930;9.766;2022-08-03T01:54:05;0.00;;;0.00;;
21260;SDS011;10788;47.930;9.766;2022-08-03T01:56:34;0.10;;;0.10;;
21260;SDS011;10788;47.930;9.766;2022-08-03T01:59:02;0.00;;;0.00;;
21260;SDS011;10788;47.930;9.766;2022-08-03T02:01:28;0.00;;;0.00;;
21260;SDS011;10788;47.930;9.766;2022-08-03T02:03:55;0.00;;;0.00;;
21260;SDS011;10788;47.930;9.766;2022-08-03T02:06:24;0.00;;;0.00;;
21260;SDS011;10788;47.930;9.766;2022-08-03T02:08:51;0.00;;;0.00;;
21260;SDS011;10788;47.930;9.766;2022-08-03T02:11:18;0.00;;;0.00;;
21260;SDS011;10788;47.930;9.766;2022-08-03T02:13:44;0.10;;;0.10;;
21260;SDS011;10788;47.930;9.766;2022-08-03T02:16:12;0.00;;;0.00;;
21260;SDS011;10788;47.930;9.766;2022-08-03T02:18:39;0.00;;;0.00;;
21260;SDS011;10788;47.930;9.766;2022-08-03T02:21:06;0.00;;;0.00;;
21260;SDS011;10788;47.930;9.766;2022-08-03T02:23:34;0.00;;;0.00;;
21260;SDS011;10788;47.930;9.766;2022-08-03T02:26:02;0.10;;;0.10;;
21260;SDS011;10788;47.930;9.766;2022-08-03T02:28:34;0.00;;;0.00;;
21260;SDS011;10788;47.930;9.766;2022-08-03T02:31:04;0.00;;;0.00;;
21260;SDS011;10788;47.930;9.766;2022-08-03T02:33:33;0.00;;;0.00;;
21260;SDS011;10788;47.930;9.766;2022-08-03T02:36:03;0.00;;;0.00;;
21260;SDS011;10788;47.930;9.766;2022-08-03T02:38:32;0.00;;;0.00;;
21260;SDS011;10788;47.930;9.766;2022-08-03T02:41:00;0.00;;;0.00;;
21260;SDS011;10788;47.930;9.766;2022-08-03T02:43:31;0.00;;;0.00;;
21260;SDS011;10788;47.930;9.766;2022-08-03T02:45:59;0.07;;;0.07;;
21260;SDS011;10788;47.930;9.766;2022-08-03T02:48:29;0.10;;;0.10;;
21260;SDS011;10788;47.930;9.766;2022-08-03T02:50:57;0.00;;;0.00;;
21260;SDS011;10788;47.930;9.766;2022-08-03T02:53:24;0.00;;;0.00;;
21260;SDS011;10788;47.930;9.766;2022-08-03T02:55:51;0.00;;;0.00;;
21260;SDS011;10788;47.930;9.766;2022-08-03T02:58:19;0.00;;;0.00;;
21260;SDS011;10788;47.930;9.766;2022-08-03T03:00:47;0.00;;;0.00;;
21260;SDS011;10788;47.930;9.766;2022-08-03T03:03:15;0.10;;;0.10;;
21260;SDS011;10788;47.930;9.766;2022-08-03T03:05:42;0.00;;;0.00;;
21260;SDS011;10788;47.930;9.766;2022-08-03T03:08:09;0.00;;;0.00;;
21260;SDS011;10788;47.930;9.766;2022-08-03T03:10:38;0.00;;;0.00;;
21260;SDS011;10788;47.930;9.766;2022-08-03T03:13:05;0.00;;;0.00;;
21260;SDS011;10788;47.930;9.766;2022-08-03T03:15:33;0.00;;;0.00;;
21260;SDS011;10788;47.930;9.766;2022-08-03T03:18:01;0.00;;;0.00;;
21260;SDS011;10788;47.930;9.766;2022-08-03T03:20:27;0.00;;;0.00;;
21260;SDS011;10788;47.930;9.766;2022-08-03T03:22:54;0.00;;;0.00;;
21260;SDS011;10788;47.930;9.766;2022-08-03T03:25:21;0.00;;;0.00;;
21260;SDS011;10788;47.930;9.766;2022-08-03T03:27:48;0.00;;;0.00;;
21260;SDS011;10788;47.930;9.766;2022-08-03T03:30:14;0.00;;;0.00;;
21260;SDS011;10788;47.930;9.766;2022-08-03T03:32:40;0.00;;;0.00;;
21260;SDS011;10788;47.930;9.766;2022-08-03T03:35:06;0.00;;;0.00;;
21260;SDS011;10788;47.930;9.766;2022-08-03T03:37:33;0.00;;;0.00;;
21260;SDS011;10788;47.930;9.766;2022-08-03T03:39:59;0.10;;;0.10;;
21260;SDS011;10788;47.930;9.766;2022-08-03T03:42:25;0.00;;;0.00;;
21260;SDS011;10788;47.930;9.766;2022-08-03T03:44:51;0.00;;;0.00;;
21260;SDS011;10788;47.930;9.766;2022-08-03T03:47:16;0.00;;;0.00;;
21260;SDS011;10788;47.930;9.766;2022-08-03T03:49:42;0.00;;;0.00;;
21260;SDS011;10788;47.930;9.766;2022-08-03T03:52:09;0.00;;;0.00;;
21260;SDS011;10788;47.930;9.766;2022-08-03T03:54:41;0.00;;;0.00;;
21260;SDS011;10788;47.930;9.766;2022-08-03T03:57:08;0.00;;;0.00;;
21260;SDS011;10788;47.930;9.766;2022-08-03T03:59:38;0.00;;;0.00;;
21260;SDS011;10788;47.930;9.766;2022-08-03T04:02:07;0.00;;;0.00;;
21260;SDS011;10788;47.930;9.766;2022-08-03T04:04:34;0.00;;;0.00;;
21260;SDS011;10788;47.930;9.766;2022-08-03T04:07:19;0.00;;;0.00;;
21260;SDS011;10788;47.930;9.766;2022-08-03T04:10:08;0.00;;;0.00;;
21260;SDS011;10788;47.930;9.766;2022-08-03T04:12:56;0.00;;;0.00;;
21260;SDS011;10788;47.930;9.766;2022-08-03T04:15:24;0.00;;;0.00;;
21260;SDS011;10788;47.930;9.766;2022-08-03T04:17:52;0.00;;;0.00;;
21260;SDS011;10788;47.930;9.766;2022-08-03T04:20:21;0.00;;;0.00;;
21260;SDS011;10788;47.930;9.766;2022-08-03T04:22:50;0.00;;;0.00;;
21260;SDS011;10788;47.930;9.766;2022-08-03T04:25:18;0.00;;;0.00;;
21260;SDS011;10788;47.930;9.766;2022-08-03T04:27:47;0.00;;;0.00;;
21260;SDS011;10788;47.930;9.766;2022-08-03T04:30:16;0.00;;;0.00;;
21260;SDS011;10788;47.930;9.766;2022-08-03T04:32:43;0.00;;;0.00;;
21260;SDS011;10788;47.930;9.766;2022-08-03T04:35:15;0.00;;;0.00;;
21260;SDS011;10788;47.930;9.766;2022-08-03T04:37:42;0.00;;;0.00;;
21260;SDS011;10788;47.930;9.766;2022-08-03T04:40:18;0.00;;;0.00;;
21260;SDS011;10788;47.930;9.766;2022-08-03T04:42:54;0.00;;;0.00;;
21260;SDS011;10788;47.930;9.766;2022-08-03T04:45:21;0.00;;;0.00;;
21260;SDS011;10788;47.930;9.766;2022-08-03T04:47:47;0.00;;;0.00;;
21260;SDS011;10788;47.930;9.766;2022-08-03T04:50:14;0.00;;;0.00;;
21260;SDS011;10788;47.930;9.766;2022-08-03T04:52:40;0.00;;;0.00;;
21260;SDS011;10788;47.930;9.766;2022-08-03T04:55:06;0.00;;;0.00;;
21260;SDS011;10788;47.930;9.766;2022-08-03T04:57:32;0.00;;;0.00;;
21260;SDS011;10788;47.930;9.766;2022-08-03T04:59:58;0.00;;;0.00;;
21260;SDS011;10788;47.930;9.766;2022-08-03T05:02:24;0.00;;;0.00;;
21260;SDS011;10788;47.930;9.766;2022-08-03T05:04:50;0.00;;;0.00;;
21260;SDS011;10788;47.930;9.766;2022-08-03T05:07:16;0.00;;;0.00;;
21260;SDS011;10788;47.930;9.766;2022-08-03T05:09:42;0.00;;;0.00;;
21260;SDS011;10788;47.930;9.766;2022-08-03T05:12:08;0.00;;;0.00;;
21260;SDS011;10788;47.930;9.766;2022-08-03T05:14:34;0.00;;;0.00;;
21260;SDS011;10788;47.930;9.766;2022-08-03T05:17:03;0.00;;;0.00;;
21260;SDS011;10788;47.930;9.766;2022-08-03T05:19:33;0.00;;;0.00;;
21260;SDS011;10788;47.930;9.766;2022-08-03T05:21:59;0.00;;;0.00;;
21260;SDS011;10788;47.930;9.766;2022-08-03T05:24:25;0.00;;;0.00;;
21260;SDS011;10788;47.930;9.766;2022-08-03T05:26:51;0.00;;;0.00;;
21260;SDS011;10788;47.930;9.766;2022-08-03T05:29:17;0.00;;;0.00;;
21260;SDS011;10788;47.930;9.766;2022-08-03T05:31:42;0.00;;;0.00;;
21260;SDS011;10788;47.930;9.766;2022-08-03T05:34:08;0.00;;;0.00;;
21260;SDS011;10788;47.930;9.766;2022-08-03T05:36:34;0.00;;;0.00;;
21260;SDS011;10788;47.930;9.766;2022-08-03T05:38:59;0.00;;;0.00;;
21260;SDS011;10788;47.930;9.766;2022-08-03T05:41:25;0.00;;;0.00;;
21260;SDS011;10788;47.930;9.766;2022-08-03T05:43:51;0.00;;;0.00;;
21260;SDS011;10788;47.930;9.766;2022-08-03T05:46:17;0.00;;;0.00;;
21260;SDS011;10788;47.930;9.766;2022-08-03T05:48:43;0.00;;;0.00;;
21260;SDS011;10788;47.930;9.766;2022-08-03T05:51:09;0.10;;;0.10;;
21260;SDS011;10788;47.930;9.766;2022-08-03T05:53:41;0.00;;;0.00;;
21260;SDS011;10788;47.930;9.766;2022-08-03T05:56:07;0.10;;;0.10;;
21260;SDS011;10788;47.930;9.766;2022-08-03T05:58:33;0.00;;;0.00;;
21260;SDS011;10788;47.930;9.766;2022-08-03T06:00:58;0.00;;;0.00;;
21260;SDS011;10788;47.930;9.766;2022-08-03T06:03:24;0.00;;;0.00;;
21260;SDS011;10788;47.930;9.766;2022-08-03T06:05:50;0.00;;;0.00;;
21260;SDS011;10788;47.930;9.766;2022-08-03T06:08:15;0.00;;;0.00;;
21260;SDS011;10788;47.930;9.766;2022-08-03T06:10:41;0.00;;;0.00;;
21260;SDS011;10788;47.930;9.766;2022-08-03T06:13:06;0.00;;;0.00;;
21260;SDS011;10788;47.930;9.766;2022-08-03T06:15:32;0.00;;;0.00;;
21260;SDS011;10788;47.930;9.766;2022-08-03T06:17:59;0.00;;;0.00;;
21260;SDS011;10788;47.930;9.766;2022-08-03T06:20:25;0.10;;;0.10;;
21260;SDS011;10788;47.930;9.766;2022-08-03T06:22:51;0.10;;;0.10;;
21260;SDS011;10788;47.930;9.766;2022-08-03T06:25:16;0.10;;;0.10;;
21260;SDS011;10788;47.930;9.766;2022-08-03T06:27:43;0.10;;;0.10;;
21260;SDS011;10788;47.930;9.766;2022-08-03T06:30:10;0.00;;;0.00;;
21260;SDS011;10788;47.930;9.766;2022-08-03T06:32:37;0.20;;;0.20;;
21260;SDS011;10788;47.930;9.766;2022-08-03T06:35:04;0.00;;;0.00;;
21260;SDS011;10788;47.930;9.766;2022-08-03T06:37:31;0.10;;;0.10;;
21260;SDS011;10788;47.930;9.766;2022-08-03T06:40:05;0.00;;;0.00;;
21260;SDS011;10788;47.930;9.766;2022-08-03T06:42:31;0.10;;;0.10;;
21260;SDS011;10788;47.930;9.766;2022-08-03T06:44:57;0.00;;;0.00;;
21260;SDS011;10788;47.930;9.766;2022-08-03T06:47:23;0.10;;;0.10;;
21260;SDS011;10788;47.930;9.766;2022-08-03T06:49:48;0.10;;;0.10;;
21260;SDS011;10788;47.930;9.766;2022-08-03T06:52:14;0.00;;;0.00;;
21260;SDS011;10788;47.930;9.766;2022-08-03T06:54:39;0.00;;;0.00;;
21260;SDS011;10788;47.930;9.766;2022-08-03T06:57:05;0.10;;;0.10;;
21260;SDS011;10788;47.930;9.766;2022-08-03T06:59:32;0.10;;;0.10;;
21260;SDS011;10788;47.930;9.766;2022-08-03T07:01:57;0.10;;;0.10;;
21260;SDS011;10788;47.930;9.766;2022-08-03T07:04:23;0.00;;;0.00;;
21260;SDS011;10788;47.930;9.766;2022-08-03T07:06:48;0.00;;;0.00;;
21260;SDS011;10788;47.930;9.766;2022-08-03T07:09:14;0.10;;;0.10;;
21260;SDS011;10788;47.930;9.766;2022-08-03T07:11:40;0.10;;;0.10;;
21260;SDS011;10788;47.930;9.766;2022-08-03T07:14:05;0.10;;;0.10;;
21260;SDS011;10788;47.930;9.766;2022-08-03T07:16:31;0.10;;;0.10;;
21260;SDS011;10788;47.930;9.766;2022-08-03T07:18:57;0.10;;;0.10;;
21260;SDS011;10788;47.930;9.766;2022-08-03T07:21:22;0.10;;;0.10;;
21260;SDS011;10788;47.930;9.766;2022-08-03T07:23:48;0.10;;;0.10;;
21260;SDS011;10788;47.930;9.766;2022-08-03T07:26:13;0.10;;;0.10;;
21260;SDS011;10788;47.930;9.766;2022-08-03T07:28:39;0.10;;;0.10;;
21260;SDS011;10788;47.930;9.766;2022-08-03T07:31:05;0.10;;;0.10;;
21260;SDS011;10788;47.930;9.766;2022-08-03T07:33:30;0.10;;;0.10;;
21260;SDS011;10788;47.930;9.766;2022-08-03T07:35:56;0.10;;;0.10;;
21260;SDS011;10788;47.930;9.766;2022-08-03T07:38:22;0.10;;;0.10;;
21260;SDS011;10788;47.930;9.766;2022-08-03T07:40:47;0.10;;;0.10;;
21260;SDS011;10788;47.930;9.766;2022-08-03T07:43:13;0.10;;;0.10;;
21260;SDS011;10788;47.930;9.766;2022-08-03T07:45:39;0.10;;;0.10;;
21260;SDS011;10788;47.930;9.766;2022-08-03T07:48:04;0.10;;;0.10;;
21260;SDS011;10788;47.930;9.766;2022-08-03T07:50:30;0.10;;;0.10;;
21260;SDS011;10788;47.930;9.766;2022-08-03T07:52:55;0.20;;;0.20;;
21260;SDS011;10788;47.930;9.766;2022-08-03T07:55:22;0.10;;;0.10;;
21260;SDS011;10788;47.930;9.766;2022-08-03T07:58:06;0.20;;;0.20;;
21260;SDS011;10788;47.930;9.766;2022-08-03T08:00:46;0.10;;;0.10;;
21260;SDS011;10788;47.930;9.766;2022-08-03T08:03:12;0.20;;;0.20;;
21260;SDS011;10788;47.930;9.766;2022-08-03T08:05:38;0.10;;;0.10;;
21260;SDS011;10788;47.930;9.766;2022-08-03T08:08:03;0.20;;;0.20;;
21260;SDS011;10788;47.930;9.766;2022-08-03T08:10:29;0.10;;;0.10;;
21260;SDS011;10788;47.930;9.766;2022-08-03T08:12:56;0.10;;;0.10;;
21260;SDS011;10788;47.930;9.766;2022-08-03T08:15:22;0.20;;;0.20;;
21260;SDS011;10788;47.930;9.766;2022-08-03T08:17:49;0.20;;;0.20;;
21260;SDS011;10788;47.930;9.766;2022-08-03T08:20:18;0.20;;;0.20;;
21260;SDS011;10788;47.930;9.766;2022-08-03T08:22:55;0.10;;;0.10;;
21260;SDS011;10788;47.930;9.766;2022-08-03T08:25:22;0.20;;;0.20;;
21260;SDS011;10788;47.930;9.766;2022-08-03T08:27:48;0.20;;;0.20;;
21260;SDS011;10788;47.930;9.766;2022-08-03T08:30:15;0.20;;;0.20;;
21260;SDS011;10788;47.930;9.766;2022-08-03T08:32:43;0.20;;;0.20;;
21260;SDS011;10788;47.930;9.766;2022-08-03T08:35:09;0.23;;;0.23;;
21260;SDS011;10788;47.930;9.766;2022-08-03T08:37:35;0.20;;;0.20;;
21260;SDS011;10788;47.930;9.766;2022-08-03T08:40:02;0.20;;;0.20;;
21260;SDS011;10788;47.930;9.766;2022-08-03T08:42:30;0.20;;;0.20;;
21260;SDS011;10788;47.930;9.766;2022-08-03T08:45:01;0.20;;;0.20;;
21260;SDS011;10788;47.930;9.766;2022-08-03T08:47:29;0.23;;;0.23;;
21260;SDS011;10788;47.930;9.766;2022-08-03T08:49:57;0.30;;;0.30;;
21260;SDS011;10788;47.930;9.766;2022-08-03T08:52:24;0.27;;;0.27;;
21260;SDS011;10788;47.930;9.766;2022-08-03T08:54:55;0.30;;;0.30;;
21260;SDS011;10788;47.930;9.766;2022-08-03T08:57:29;0.30;;;0.30;;
21260;SDS011;10788;47.930;9.766;2022-08-03T09:00:00;0.33;;;0.33;;
21260;SDS011;10788;47.930;9.766;2022-08-03T09:02:28;0.30;;;0.30;;
21260;SDS011;10788;47.930;9.766;2022-08-03T09:04:54;0.33;;;0.33;;
21260;SDS011;10788;47.930;9.766;2022-08-03T09:07:21;0.40;;;0.40;;
21260;SDS011;10788;47.930;9.766;2022-08-03T09:09:46;0.50;;;0.50;;
21260;SDS011;10788;47.930;9.766;2022-08-03T09:12:12;0.30;;;0.30;;
21260;SDS011;10788;47.930;9.766;2022-08-03T09:14:38;0.37;;;0.37;;
21260;SDS011;10788;47.930;9.766;2022-08-03T09:17:04;0.30;;;0.30;;
21260;SDS011;10788;47.930;9.766;2022-08-03T09:19:31;0.30;;;0.30;;
21260;SDS011;10788;47.930;9.766;2022-08-03T09:27:25;0.40;;;0.40;;
21260;SDS011;10788;47.930;9.766;2022-08-03T09:29:51;0.30;;;0.30;;
21260;SDS011;10788;47.930;9.766;2022-08-03T09:32:22;0.40;;;0.40;;
21260;SDS011;10788;47.930;9.766;2022-08-03T09:34:51;0.30;;;0.30;;
21260;SDS011;10788;47.930;9.766;2022-08-03T09:37:18;0.40;;;0.40;;
21260;SDS011;10788;47.930;9.766;2022-08-03T09:39:45;0.40;;;0.40;;
21260;SDS011;10788;47.930;9.766;2022-08-03T09:42:12;0.30;;;0.30;;
21260;SDS011;10788;47.930;9.766;2022-08-03T09:44:46;0.30;;;0.30;;
21260;SDS011;10788;47.930;9.766;2022-08-03T09:47:14;0.33;;;0.33;;
21260;SDS011;10788;47.930;9.766;2022-08-03T09:50:02;0.40;;;0.40;;
21260;SDS011;10788;47.930;9.766;2022-08-03T09:52:30;0.30;;;0.30;;
21260;SDS011;10788;47.930;9.766;2022-08-03T09:54:57;0.40;;;0.40;;
21260;SDS011;10788;47.930;9.766;2022-08-03T09:57:25;0.50;;;0.50;;
21260;SDS011;10788;47.930;9.766;2022-08-03T09:59:52;0.43;;;0.43;;
21260;SDS011;10788;47.930;9.766;2022-08-03T10:02:25;0.50;;;0.50;;
21260;SDS011;10788;47.930;9.766;2022-08-03T10:04:52;0.40;;;0.40;;
21260;SDS011;10788;47.930;9.766;2022-08-03T10:07:21;0.40;;;0.40;;
21260;SDS011;10788;47.930;9.766;2022-08-03T10:09:52;0.50;;;0.50;;
21260;SDS011;10788;47.930;9.766;2022-08-03T10:12:23;0.50;;;0.50;;
21260;SDS011;10788;47.930;9.766;2022-08-03T10:14:49;0.40;;;0.40;;
21260;SDS011;10788;47.930;9.766;2022-08-03T10:17:16;0.47;;;0.47;;
21260;SDS011;10788;47.930;9.766;2022-08-03T10:19:43;0.50;;;0.50;;
21260;SDS011;10788;47.930;9.766;2022-08-03T10:22:11;0.50;;;0.50;;
21260;SDS011;10788;47.930;9.766;2022-08-03T10:24:39;0.80;;;0.80;;
21260;SDS011;10788;47.930;9.766;2022-08-03T10:27:33;0.50;;;0.50;;
21260;SDS011;10788;47.930;9.766;2022-08-03T10:30:05;0.30;;;0.30;;
21260;SDS011;10788;47.930;9.766;2022-08-03T10:32:33;0.50;;;0.50;;
21260;SDS011;10788;47.930;9.766;2022-08-03T10:35:10;0.70;;;0.70;;
21260;SDS011;10788;47.930;9.766;2022-08-03T10:37:48;0.60;;;0.60;;
21260;SDS011;10788;47.930;9.766;2022-08-03T10:40:23;0.50;;;0.50;;
21260;SDS011;10788;47.930;9.766;2022-08-03T10:42:53;0.53;;;0.53;;
21260;SDS011;10788;47.930;9.766;2022-08-03T10:45:24;0.50;;;0.50;;
21260;SDS011;10788;47.930;9.766;2022-08-03T10:47:51;0.50;;;0.50;;
21260;SDS011;10788;47.930;9.766;2022-08-03T10:50:18;0.50;;;0.50;;
21260;SDS011;10788;47.930;9.766;2022-08-03T10:55:34;0.60;;;0.60;;
21260;SDS011;10788;47.930;9.766;2022-08-03T10:58:45;0.57;;;0.57;;
21260;SDS011;10788;47.930;9.766;2022-08-03T11:01:14;0.50;;;0.50;;
21260;SDS011;10788;47.930;9.766;2022-08-03T11:09:24;0.50;;;0.50;;
21260;SDS011;10788;47.930;9.766;2022-08-03T11:11:43;0.70;;;0.70;;
21260;SDS011;10788;47.930;9.766;2022-08-03T11:14:20;0.50;;;0.50;;
21260;SDS011;10788;47.930;9.766;2022-08-03T11:16:47;0.70;;;0.70;;
21260;SDS011;10788;47.930;9.766;2022-08-03T11:19:17;0.60;;;0.60;;
21260;SDS011;10788;47.930;9.766;2022-08-03T11:30:00;0.70;;;0.70;;
21260;SDS011;10788;47.930;9.766;2022-08-03T11:43:54;0.60;;;0.60;;
21260;SDS011;10788;47.930;9.766;2022-08-03T11:46:02;0.70;;;0.70;;
21260;SDS011;10788;47.930;9.766;2022-08-03T11:48:42;0.60;;;0.60;;
21260;SDS011;10788;47.930;9.766;2022-08-03T11:53:45;0.70;;;0.70;;
21260;SDS011;10788;47.930;9.766;2022-08-03T11:56:15;0.60;;;0.60;;
21260;SDS011;10788;47.930;9.766;2022-08-03T11:58:47;0.90;;;0.90;;
21260;SDS011;10788;47.930;9.766;2022-08-03T12:01:13;0.70;;;0.70;;
21260;SDS011;10788;47.930;9.766;2022-08-03T12:03:42;0.70;;;0.70;;
21260;SDS011;10788;47.930;9.766;2022-08-03T12:06:09;0.60;;;0.60;;
21260;SDS011;10788;47.930;9.766;2022-08-03T12:08:40;0.70;;;0.70;;
21260;SDS011;10788;47.930;9.766;2022-08-03T12:11:07;0.70;;;0.70;;
21260;SDS011;10788;47.930;9.766;2022-08-03T12:13:35;0.57;;;0.57;;
21260;SDS011;10788;47.930;9.766;2022-08-03T12:16:06;0.60;;;0.60;;
21260;SDS011;10788;47.930;9.766;2022-08-03T12:18:32;0.70;;;0.70;;
21260;SDS011;10788;47.930;9.766;2022-08-03T12:21:05;0.70;;;0.70;;
21260;SDS011;10788;47.930;9.766;2022-08-03T12:23:32;0.70;;;0.70;;
21260;SDS011;10788;47.930;9.766;2022-08-03T12:26:05;0.87;;;0.87;;
21260;SDS011;10788;47.930;9.766;2022-08-03T12:28:35;0.60;;;0.60;;
21260;SDS011;10788;47.930;9.766;2022-08-03T12:31:05;1.00;;;0.90;;
21260;SDS011;10788;47.930;9.766;2022-08-03T12:33:32;0.77;;;0.77;;
21260;SDS011;10788;47.930;9.766;2022-08-03T12:36:17;0.70;;;0.70;;
21260;SDS011;10788;47.930;9.766;2022-08-03T12:38:43;0.70;;;0.70;;
21260;SDS011;10788;47.930;9.766;2022-08-03T12:41:26;0.70;;;0.70;;
21260;SDS011;10788;47.930;9.766;2022-08-03T12:43:54;0.60;;;0.60;;
21260;SDS011;10788;47.930;9.766;2022-08-03T12:46:20;0.70;;;0.70;;
21260;SDS011;10788;47.930;9.766;2022-08-03T12:51:27;0.50;;;0.50;;
21260;SDS011;10788;47.930;9.766;2022-08-03T12:53:54;0.70;;;0.70;;
21260;SDS011;10788;47.930;9.766;2022-08-03T12:56:21;0.70;;;0.70;;
21260;SDS011;10788;47.930;9.766;2022-08-03T12:58:47;0.70;;;0.70;;
21260;SDS011;10788;47.930;9.766;2022-08-03T13:01:14;0.70;;;0.70;;
21260;SDS011;10788;47.930;9.766;2022-08-03T13:03:41;0.50;;;0.50;;
21260;SDS011;10788;47.930;9.766;2022-08-03T13:06:12;0.70;;;0.70;;
21260;SDS011;10788;47.930;9.766;2022-08-03T13:08:38;0.80;;;0.80;;
21260;SDS011;10788;47.930;9.766;2022-08-03T13:11:20;0.60;;;0.60;;
21260;SDS011;10788;47.930;9.766;2022-08-03T13:13:51;0.70;;;0.70;;
21260;SDS011;10788;47.930;9.766;2022-08-03T13:16:18;0.80;;;0.80;;
21260;SDS011;10788;47.930;9.766;2022-08-03T13:18:45;0.80;;;0.80;;
21260;SDS011;10788;47.930;9.766;2022-08-03T13:21:13;0.67;;;0.67;;
21260;SDS011;10788;47.930;9.766;2022-08-03T13:23:40;0.70;;;0.70;;
21260;SDS011;10788;47.930;9.766;2022-08-03T13:26:06;0.63;;;0.63;;
21260;SDS011;10788;47.930;9.766;2022-08-03T13:28:32;0.50;;;0.50;;
21260;SDS011;10788;47.930;9.766;2022-08-03T13:30:57;0.50;;;0.50;;
21260;SDS011;10788;47.930;9.766;2022-08-03T13:33:23;0.80;;;0.80;;
21260;SDS011;10788;47.930;9.766;2022-08-03T13:35:50;0.70;;;0.70;;
21260;SDS011;10788;47.930;9.766;2022-08-03T13:38:16;0.50;;;0.50;;
21260;SDS011;10788;47.930;9.766;2022-08-03T13:40:41;0.60;;;0.60;;
21260;SDS011;10788;47.930;9.766;2022-08-03T13:43:07;0.80;;;0.80;;
21260;SDS011;10788;47.930;9.766;2022-08-03T13:45:33;0.60;;;0.60;;
21260;SDS011;10788;47.930;9.766;2022-08-03T13:47:58;1.00;;;0.90;;
21260;SDS011;10788;47.930;9.766;2022-08-03T13:50:24;0.87;;;0.87;;
21260;SDS011;10788;47.930;9.766;2022-08-03T13:52:49;0.70;;;0.70;;
21260;SDS011;10788;47.930;9.766;2022-08-03T13:55:15;0.80;;;0.80;;
21260;SDS011;10788;47.930;9.766;2022-08-03T13:57:41;0.93;;;0.90;;
21260;SDS011;10788;47.930;9.766;2022-08-03T14:00:07;1.10;;;1.00;;
21260;SDS011;10788;47.930;9.766;2022-08-03T14:02:33;0.60;;;0.60;;
21260;SDS011;10788;47.930;9.766;2022-08-03T14:04:59;0.80;;;0.80;;
21260;SDS011;10788;47.930;9.766;2022-08-03T14:07:24;0.67;;;0.67;;
21260;SDS011;10788;47.930;9.766;2022-08-03T14:09:50;0.80;;;0.80;;
21260;SDS011;10788;47.930;9.766;2022-08-03T14:12:15;0.70;;;0.70;;
21260;SDS011;10788;47.930;9.766;2022-08-03T14:14:41;0.60;;;0.60;;
21260;SDS011;10788;47.930;9.766;2022-08-03T14:17:06;0.53;;;0.53;;
21260;SDS011;10788;47.930;9.766;2022-08-03T14:19:32;0.70;;;0.70;;
21260;SDS011;10788;47.930;9.766;2022-08-03T14:21:58;0.70;;;0.70;;
21260;SDS011;10788;47.930;9.766;2022-08-03T14:24:23;0.67;;;0.67;;
21260;SDS011;10788;47.930;9.766;2022-08-03T14:26:49;0.60;;;0.60;;
21260;SDS011;10788;47.930;9.766;2022-08-03T14:29:15;0.70;;;0.70;;
21260;SDS011;10788;47.930;9.766;2022-08-03T14:31:40;0.80;;;0.80;;
21260;SDS011;10788;47.930;9.766;2022-08-03T14:34:06;0.83;;;0.83;;
21260;SDS011;10788;47.930;9.766;2022-08-03T14:36:31;0.80;;;0.80;;
21260;SDS011;10788;47.930;9.766;2022-08-03T14:38:57;0.87;;;0.87;;
21260;SDS011;10788;47.930;9.766;2022-08-03T14:41:23;0.70;;;0.70;;
21260;SDS011;10788;47.930;9.766;2022-08-03T14:43:48;0.80;;;0.80;;
21260;SDS011;10788;47.930;9.766;2022-08-03T14:46:14;1.20;;;1.10;;
21260;SDS011;10788;47.930;9.766;2022-08-03T14:48:39;0.70;;;0.70;;
21260;SDS011;10788;47.930;9.766;2022-08-03T14:51:05;0.53;;;0.53;;
21260;SDS011;10788;47.930;9.766;2022-08-03T14:53:31;0.97;;;0.90;;
21260;SDS011;10788;47.930;9.766;2022-08-03T14:55:58;1.10;;;1.00;;
21260;SDS011;10788;47.930;9.766;2022-08-03T14:58:23;0.80;;;0.80;;
21260;SDS011;10788;47.930;9.766;2022-08-03T15:00:50;0.60;;;0.60;;
21260;SDS011;10788;47.930;9.766;2022-08-03T15:03:18;0.70;;;0.70;;
21260;SDS011;10788;47.930;9.766;2022-08-03T15:05:47;1.03;;;1.00;;
21260;SDS011;10788;47.930;9.766;2022-08-03T15:08:13;0.80;;;0.80;;
21260;SDS011;10788;47.930;9.766;2022-08-03T15:10:39;0.63;;;0.63;;
21260;SDS011;10788;47.930;9.766;2022-08-03T15:13:04;0.80;;;0.80;;
21260;SDS011;10788;47.930;9.766;2022-08-03T15:15:30;0.93;;;0.90;;
21260;SDS011;10788;47.930;9.766;2022-08-03T15:17:56;0.87;;;0.87;;
21260;SDS011;10788;47.930;9.766;2022-08-03T15:20:21;0.70;;;0.70;;
21260;SDS011;10788;47.930;9.766;2022-08-03T15:22:47;0.70;;;0.70;;
21260;SDS011;10788;47.930;9.766;2022-08-03T15:25:12;0.80;;;0.80;;
21260;SDS011;10788;47.930;9.766;2022-08-03T15:27:38;1.07;;;0.97;;
21260;SDS011;10788;47.930;9.766;2022-08-03T15:30:04;0.70;;;0.70;;
21260;SDS011;10788;47.930;9.766;2022-08-03T15:32:31;0.83;;;0.83;;
21260;SDS011;10788;47.930;9.766;2022-08-03T15:34:57;0.70;;;0.70;;
21260;SDS011;10788;47.930;9.766;2022-08-03T15:37:24;1.00;;;0.90;;
21260;SDS011;10788;47.930;9.766;2022-08-03T15:39:50;0.60;;;0.60;;
21260;SDS011;10788;47.930;9.766;2022-08-03T15:42:16;0.90;;;0.90;;
21260;SDS011;10788;47.930;9.766;2022-08-03T15:44:41;0.80;;;0.80;;